Time;durP1;ratioP1;P1;durP2;ratioP2;P2;SDS_P1;SDS_P2;PMS_P1;PMS_P2;Temp;Humidity;BMP_temperature;BMP_pressure;BME280_temperature;BME280_humidity;BME280_pressure;Samples;Min_cycle;Max_cycle;Signal;HPM_P1;HPM_P2
2022/07/31 00:01:11;;;;;;;24.73;12.27;;;15.50;99.90;;;;;;5034361;28;20014;-68
2022/07/31 00:03:36;;;;;;;17.92;13.10;;;15.50;99.90;;;;;;5034249;28;20099;-68
2022/07/31 00:06:02;;;;;;;16.38;11.65;;;15.50;99.90;;;;;;5034831;28;20454;-68
2022/07/31 00:08:28;;;;;;;11.50;10.38;;;15.50;99.90;;;;;;5034292;28;20470;-68
2022/07/31 00:10:53;;;;;;;13.57;10.45;;;15.50;99.90;;;;;;5029286;28;20131;-68
2022/07/31 00:13:19;;;;;;;16.23;11.52;;;15.50;99.90;;;;;;5034044;28;20021;-68
2022/07/31 00:15:44;;;;;;;24.67;13.77;;;15.40;99.90;;;;;;5034872;28;20097;-68
2022/07/31 00:18:10;;;;;;;15.32;11.15;;;15.40;99.90;;;;;;5034010;28;20018;-68
2022/07/31 00:20:36;;;;;;;18.08;12.75;;;15.40;99.90;;;;;;5014953;28;20069;-67
2022/07/31 00:23:01;;;;;;;15.07;13.38;;;15.40;99.90;;;;;;5014239;28;20541;-67
2022/07/31 00:25:27;;;;;;;15.77;10.95;;;15.40;99.90;;;;;;5016450;28;20064;-68
2022/07/31 00:27:52;;;;;;;17.83;11.00;;;15.40;99.90;;;;;;5014095;28;20079;-68
2022/07/31 00:30:18;;;;;;;18.17;11.82;;;15.30;99.90;;;;;;5014172;28;20022;-68
2022/07/31 00:32:44;;;;;;;14.23;11.32;;;15.40;99.90;;;;;;5014045;28;20018;-68
2022/07/31 00:35:12;;;;;;;17.58;12.18;;;15.40;99.90;;;;;;5012706;28;20494;-68
2022/07/31 00:37:40;;;;;;;14.93;12.55;;;15.40;99.90;;;;;;5013873;28;20018;-68
2022/07/31 00:40:07;;;;;;;15.80;11.70;;;15.40;99.90;;;;;;5014183;28;20033;-68
2022/07/31 00:42:33;;;;;;;18.42;13.77;;;15.50;99.90;;;;;;5033929;28;20466;-68
2022/07/31 00:44:58;;;;;;;14.85;12.80;;;15.40;99.90;;;;;;5033622;28;20030;-68
2022/07/31 00:47:24;;;;;;;13.52;12.10;;;15.40;99.90;;;;;;5033549;28;20450;-68
2022/07/31 00:49:50;;;;;;;17.92;12.30;;;15.40;99.90;;;;;;5052415;28;20485;-68
2022/07/31 00:52:15;;;;;;;14.05;11.10;;;15.40;99.90;;;;;;5053384;28;20444;-68
2022/07/31 00:54:41;;;;;;;14.70;12.50;;;15.40;99.90;;;;;;5047601;28;20071;-68
2022/07/31 00:57:07;;;;;;;16.65;12.50;;;15.40;99.90;;;;;;5033496;28;20032;-68
2022/07/31 00:59:32;;;;;;;18.45;13.07;;;15.40;99.90;;;;;;5033954;28;20076;-68
2022/07/31 01:01:58;;;;;;;16.13;12.05;;;15.40;99.90;;;;;;5033349;28;20395;-68
2022/07/31 01:04:25;;;;;;;14.25;12.00;;;15.40;99.90;;;;;;5033328;28;20088;-68
2022/07/31 01:06:54;;;;;;;17.05;12.50;;;15.40;99.90;;;;;;5033071;28;20428;-68
2022/07/31 01:09:20;;;;;;;16.38;12.73;;;15.40;99.90;;;;;;5013613;28;20032;-68
2022/07/31 01:12:04;;;;;;;16.63;12.30;;;15.40;99.90;;;;;;5013440;28;20046;-68
2022/07/31 01:14:35;;;;;;;14.68;12.93;;;15.40;99.90;;;;;;5014152;28;20383;-68
2022/07/31 01:17:03;;;;;;;16.45;12.63;;;15.40;99.90;;;;;;5028237;28;20081;-68
2022/07/31 01:19:42;;;;;;;24.75;14.30;;;15.40;99.90;;;;;;5038235;28;20485;-68
2022/07/31 01:22:19;;;;;;;22.30;15.82;;;15.40;99.90;;;;;;5038937;28;20041;-68
2022/07/31 01:25:16;;;;;;;20.58;14.70;;;15.40;99.90;;;;;;5037285;28;20022;-68
2022/07/31 01:28:03;;;;;;;19.67;13.85;;;15.40;99.90;;;;;;4965611;28;20108;-69
2022/07/31 01:30:38;;;;;;;16.55;13.27;;;15.30;99.90;;;;;;5030846;28;20022;-68
2022/07/31 01:33:11;;;;;;;17.77;14.15;;;15.30;99.90;;;;;;5037033;28;20108;-68
2022/07/31 01:35:44;;;;;;;25.58;13.88;;;15.30;99.90;;;;;;5036885;28;20060;-68
2022/07/31 01:38:15;;;;;;;19.75;13.63;;;15.30;99.90;;;;;;5017913;28;20032;-68
2022/07/31 01:40:44;;;;;;;18.73;12.82;;;15.30;99.90;;;;;;5017588;28;20428;-68
2022/07/31 01:43:21;;;;;;;14.43;12.73;;;15.30;99.90;;;;;;5017891;28;20040;-68
2022/07/31 01:45:50;;;;;;;16.88;13.70;;;15.40;99.90;;;;;;5037440;28;20071;-68
2022/07/31 01:48:17;;;;;;;17.00;15.07;;;15.30;99.90;;;;;;5042895;28;20067;-68
2022/07/31 01:50:45;;;;;;;24.52;13.90;;;15.40;99.90;;;;;;5056681;28;20029;-69
2022/07/31 01:53:22;;;;;;;17.13;13.77;;;15.40;99.90;;;;;;5056897;28;20025;-68
2022/07/31 01:55:51;;;;;;;19.13;15.55;;;15.50;99.90;;;;;;5017195;28;20356;-68
2022/07/31 01:58:19;;;;;;;23.75;16.77;;;15.50;99.90;;;;;;5015590;28;20037;-69
2022/07/31 02:00:47;;;;;;;24.65;17.75;;;15.50;99.90;;;;;;5016774;28;20025;-68
2022/07/31 02:03:14;;;;;;;25.98;18.98;;;15.60;99.90;;;;;;5017495;28;20029;-69
2022/07/31 02:05:41;;;;;;;28.35;17.15;;;15.60;99.90;;;;;;5036508;28;20151;-68
2022/07/31 02:08:09;;;;;;;22.75;16.55;;;15.60;99.90;;;;;;5036239;28;20026;-69
2022/07/31 02:10:37;;;;;;;36.33;21.60;;;15.60;99.90;;;;;;5036026;28;20083;-68
2022/07/31 02:13:04;;;;;;;25.08;18.33;;;15.60;99.90;;;;;;5036278;28;20022;-68
2022/07/31 02:15:31;;;;;;;25.58;17.58;;;15.60;99.90;;;;;;5036224;28;20108;-68
2022/07/31 02:17:58;;;;;;;27.70;19.02;;;15.60;99.90;;;;;;5036849;28;20048;-68
2022/07/31 02:20:25;;;;;;;20.30;17.30;;;15.60;99.90;;;;;;5035956;28;20406;-68
2022/07/31 02:22:52;;;;;;;23.15;18.90;;;15.50;99.90;;;;;;5036039;28;20045;-68
2022/07/31 02:25:17;;;;;;;23.10;18.23;;;15.50;99.90;;;;;;5035809;28;20056;-68
2022/07/31 02:27:44;;;;;;;22.13;16.85;;;15.50;99.90;;;;;;5034409;28;20026;-68
2022/07/31 02:30:10;;;;;;;22.83;18.13;;;15.50;99.90;;;;;;5036360;28;20429;-68
2022/07/31 02:32:37;;;;;;;23.15;18.25;;;15.50;99.90;;;;;;5036043;28;20028;-68
2022/07/31 02:35:04;;;;;;;24.20;16.27;;;15.50;99.90;;;;;;5035865;28;20438;-68
2022/07/31 02:37:33;;;;;;;25.15;16.00;;;15.50;99.90;;;;;;5035842;28;20093;-68
2022/07/31 02:40:00;;;;;;;21.00;15.93;;;15.50;99.90;;;;;;5036105;28;20021;-68
2022/07/31 02:42:26;;;;;;;32.10;16.10;;;15.40;99.90;;;;;;5035740;28;20381;-68
2022/07/31 02:44:52;;;;;;;24.30;15.77;;;15.40;99.90;;;;;;5035824;28;20030;-68
2022/07/31 02:47:18;;;;;;;21.50;14.95;;;15.40;99.90;;;;;;5035640;28;20091;-68
2022/07/31 02:49:46;;;;;;;26.73;16.35;;;15.30;99.90;;;;;;5053737;28;20040;-68
2022/07/31 02:52:12;;;;;;;19.23;14.50;;;15.20;99.90;;;;;;5015816;28;20018;-68
2022/07/31 02:54:39;;;;;;;26.00;14.55;;;15.20;99.90;;;;;;5015739;28;20026;-68
2022/07/31 02:57:05;;;;;;;21.20;15.32;;;15.00;99.90;;;;;;5016117;28;20026;-68
2022/07/31 02:59:35;;;;;;;22.02;14.32;;;15.00;99.90;;;;;;5032407;28;20033;-68
2022/07/31 03:02:00;;;;;;;22.27;14.73;;;14.90;99.90;;;;;;5035510;28;20075;-68
2022/07/31 03:04:26;;;;;;;22.20;13.40;;;14.80;99.90;;;;;;5035273;28;20440;-68
2022/07/31 03:06:52;;;;;;;18.08;11.32;;;14.70;99.90;;;;;;5035314;28;20032;-68
2022/07/31 03:09:17;;;;;;;13.90;11.13;;;14.60;99.90;;;;;;5035624;28;20096;-68
2022/07/31 03:11:43;;;;;;;16.92;12.27;;;14.50;99.90;;;;;;5035561;28;20121;-68
2022/07/31 03:14:10;;;;;;;22.02;12.60;;;14.50;99.90;;;;;;5035157;28;20508;-68
2022/07/31 03:16:37;;;;;;;14.02;11.00;;;14.50;99.90;;;;;;5035198;28;20429;-68
2022/07/31 03:19:04;;;;;;;15.38;11.43;;;14.50;99.90;;;;;;5035149;28;20025;-68
2022/07/31 03:21:30;;;;;;;13.27;11.50;;;14.40;99.90;;;;;;5034868;28;20025;-68
2022/07/31 03:23:57;;;;;;;18.40;12.63;;;14.30;99.90;;;;;;5035015;28;20100;-68
2022/07/31 03:26:23;;;;;;;14.90;12.40;;;14.40;99.90;;;;;;5035817;28;20135;-68
2022/07/31 03:28:49;;;;;;;15.35;11.55;;;14.40;99.90;;;;;;5038677;28;20029;-69
2022/07/31 03:31:15;;;;;;;19.30;11.60;;;14.30;99.90;;;;;;5046409;28;20039;-68
2022/07/31 03:33:41;;;;;;;16.88;12.00;;;14.30;99.90;;;;;;5055484;28;20032;-68
2022/07/31 03:36:08;;;;;;;20.75;13.30;;;14.40;99.90;;;;;;5038074;28;20071;-68
2022/07/31 03:38:34;;;;;;;17.27;11.57;;;14.40;99.90;;;;;;5034393;28;20088;-68
2022/07/31 03:40:59;;;;;;;13.57;12.18;;;14.40;99.90;;;;;;5035160;28;20044;-68
2022/07/31 03:43:27;;;;;;;13.88;11.35;;;14.40;99.90;;;;;;5042125;28;20086;-68
2022/07/31 03:45:53;;;;;;;22.85;14.85;;;14.40;99.90;;;;;;5055182;28;20025;-68
2022/07/31 03:48:19;;;;;;;21.83;15.25;;;14.50;99.90;;;;;;5044666;28;20029;-68
2022/07/31 03:50:44;;;;;;;16.75;14.13;;;14.50;99.90;;;;;;5036319;28;20025;-68
2022/07/31 03:53:10;;;;;;;20.60;14.10;;;14.60;99.90;;;;;;5053412;28;20031;-68
2022/07/31 03:55:38;;;;;;;19.33;13.70;;;14.70;99.90;;;;;;5050588;28;20022;-68
2022/07/31 03:58:05;;;;;;;19.23;15.10;;;14.70;99.90;;;;;;5034469;28;20037;-68
2022/07/31 04:00:31;;;;;;;18.50;13.05;;;14.70;99.90;;;;;;5034262;28;20496;-68
2022/07/31 04:03:03;;;;;;;16.77;12.30;;;14.70;99.90;;;;;;5034559;28;20017;-68
2022/07/31 04:05:28;;;;;;;16.52;11.88;;;14.70;99.90;;;;;;5049143;28;20504;-68
2022/07/31 04:07:54;;;;;;;14.27;11.82;;;14.70;99.90;;;;;;5038876;28;20104;-69
2022/07/31 04:10:19;;;;;;;23.65;13.10;;;14.70;99.90;;;;;;5034080;28;20025;-68
2022/07/31 04:12:45;;;;;;;18.90;12.90;;;14.70;99.90;;;;;;5034005;28;20075;-68
2022/07/31 04:15:11;;;;;;;14.18;12.10;;;14.80;99.90;;;;;;5034010;28;20029;-69
2022/07/31 04:17:36;;;;;;;15.32;12.57;;;14.80;99.90;;;;;;5034038;28;20047;-68
2022/07/31 04:20:02;;;;;;;16.55;12.88;;;14.80;99.90;;;;;;5033611;28;20041;-68
2022/07/31 04:22:28;;;;;;;19.48;14.20;;;14.80;99.90;;;;;;5048184;28;20021;-68
2022/07/31 04:24:53;;;;;;;20.55;16.25;;;14.90;99.90;;;;;;5046533;28;20517;-68
2022/07/31 04:27:19;;;;;;;18.50;14.98;;;14.90;99.90;;;;;;5034200;28;20029;-68
2022/07/31 04:29:45;;;;;;;17.40;13.68;;;14.90;99.90;;;;;;5033763;28;20026;-68
2022/07/31 04:32:11;;;;;;;26.25;14.80;;;15.00;99.90;;;;;;5033665;28;20485;-68
2022/07/31 04:34:38;;;;;;;26.10;17.00;;;15.00;99.90;;;;;;5032469;28;20029;-68
2022/07/31 04:37:03;;;;;;;25.90;17.83;;;15.10;99.90;;;;;;5033947;28;20076;-68
2022/07/31 04:39:29;;;;;;;22.00;16.17;;;15.10;99.90;;;;;;5033616;28;20489;-68
2022/07/31 04:41:55;;;;;;;20.67;14.40;;;15.10;99.90;;;;;;5033569;28;20021;-68
2022/07/31 04:44:21;;;;;;;15.77;13.40;;;15.20;99.90;;;;;;5033626;28;20033;-68
2022/07/31 04:46:46;;;;;;;21.73;15.50;;;15.30;99.90;;;;;;5033884;28;20033;-68
2022/07/31 04:49:13;;;;;;;26.98;17.30;;;15.40;99.90;;;;;;5033638;28;20029;-68
2022/07/31 04:51:40;;;;;;;24.10;14.63;;;15.50;99.90;;;;;;5033432;28;20497;-68
2022/07/31 04:54:06;;;;;;;15.57;12.35;;;15.60;99.90;;;;;;5033701;28;20032;-68
2022/07/31 04:56:36;;;;;;;26.70;18.67;;;15.70;99.90;;;;;;5047092;28;20021;-68
2022/07/31 04:59:28;;;;;;;21.98;15.85;;;15.80;99.90;;;;;;5053875;28;20025;-68
2022/07/31 05:01:53;;;;;;;18.20;11.45;;;15.80;99.90;;;;;;5049863;28;20037;-68
2022/07/31 05:04:19;;;;;;;21.70;13.90;;;15.80;99.90;;;;;;5053635;28;20027;-68
2022/07/31 05:06:49;;;;;;;19.70;15.20;;;15.90;99.90;;;;;;5053272;28;20111;-68
2022/07/31 05:09:17;;;;;;;27.85;17.60;;;15.90;99.90;;;;;;5053237;28;20481;-68
2022/07/31 05:11:44;;;;;;;25.88;16.48;;;16.00;99.90;;;;;;5051875;28;20037;-68
2022/07/31 05:14:11;;;;;;;21.38;14.52;;;16.00;99.90;;;;;;5053407;28;20031;-68
2022/07/31 05:16:37;;;;;;;19.63;14.98;;;16.10;99.90;;;;;;5053199;28;20079;-68
2022/07/31 05:19:04;;;;;;;18.92;13.95;;;16.30;99.90;;;;;;5053322;28;20103;-68
2022/07/31 05:21:30;;;;;;;18.23;13.38;;;16.40;99.90;;;;;;5052923;28;20029;-68
2022/07/31 05:23:57;;;;;;;17.77;11.75;;;16.50;99.90;;;;;;5053604;28;20057;-68
2022/07/31 05:26:23;;;;;;;19.55;13.85;;;16.70;99.90;;;;;;5053104;28;20017;-68
2022/07/31 05:28:50;;;;;;;17.02;11.60;;;16.80;99.90;;;;;;5053046;28;20540;-68
2022/07/31 05:31:17;;;;;;;17.27;11.70;;;17.00;99.90;;;;;;5053849;28;20152;-68
2022/07/31 05:33:44;;;;;;;18.98;13.07;;;17.20;99.90;;;;;;5053260;28;20060;-68
2022/07/31 05:36:09;;;;;;;15.07;11.95;;;17.30;99.90;;;;;;5053211;28;20512;-68
2022/07/31 05:38:35;;;;;;;16.42;11.65;;;17.50;99.90;;;;;;5053078;28;20029;-68
2022/07/31 05:41:01;;;;;;;12.68;9.13;;;17.60;99.90;;;;;;5053093;28;20037;-68
2022/07/31 05:43:26;;;;;;;11.60;9.73;;;17.70;99.90;;;;;;5052970;28;20032;-68
2022/07/31 05:45:52;;;;;;;8.68;7.80;;;17.70;99.90;;;;;;5037075;28;20075;-68
2022/07/31 05:48:18;;;;;;;11.48;10.20;;;17.70;99.90;;;;;;5032994;28;20470;-68
2022/07/31 05:50:46;;;;;;;9.55;7.78;;;17.60;99.90;;;;;;5032936;28;20025;-68
2022/07/31 05:53:14;;;;;;;12.10;7.40;;;17.40;99.90;;;;;;5033561;28;20424;-69
2022/07/31 05:55:40;;;;;;;11.57;8.00;;;17.30;99.90;;;;;;5039659;28;20096;-69
2022/07/31 05:58:07;;;;;;;14.23;9.25;;;17.30;99.90;;;;;;5045118;28;20109;-69
2022/07/31 06:00:33;;;;;;;12.38;6.30;;;17.30;99.90;;;;;;5032997;28;20029;-69
2022/07/31 06:02:59;;;;;;;8.00;6.30;;;17.30;99.90;;;;;;5036821;28;20112;-69
2022/07/31 06:05:26;;;;;;;6.85;6.15;;;17.40;99.90;;;;;;5037686;28;20029;-69
2022/07/31 06:07:51;;;;;;;7.38;5.90;;;17.30;99.90;;;;;;5037896;28;20079;-69
2022/07/31 06:10:17;;;;;;;12.27;5.93;;;17.30;99.90;;;;;;5037154;28;20034;-69
2022/07/31 06:12:42;;;;;;;14.82;6.95;;;17.30;99.90;;;;;;5036596;28;20090;-69
2022/07/31 06:15:08;;;;;;;6.68;5.55;;;17.30;99.90;;;;;;5036717;28;20036;-69
2022/07/31 06:17:36;;;;;;;5.88;5.00;;;17.40;99.90;;;;;;5036763;28;20025;-69
2022/07/31 06:20:02;;;;;;;9.38;5.72;;;17.50;99.90;;;;;;5036028;28;20224;-69
2022/07/31 06:22:27;;;;;;;10.85;6.38;;;17.70;99.90;;;;;;5034077;28;20139;-69
2022/07/31 06:24:53;;;;;;;8.10;5.78;;;17.80;99.90;;;;;;5035487;28;20037;-69
2022/07/31 06:27:19;;;;;;;10.45;5.40;;;17.90;99.90;;;;;;5035244;28;20053;-69
2022/07/31 06:29:44;;;;;;;14.93;9.30;;;18.00;99.90;;;;;;5035119;28;20029;-69
2022/07/31 06:32:10;;;;;;;15.65;8.30;;;18.20;99.90;;;;;;5035109;28;20486;-69
2022/07/31 06:34:35;;;;;;;8.45;6.55;;;18.30;99.90;;;;;;5035092;28;20390;-69
2022/07/31 06:37:01;;;;;;;11.93;5.25;;;18.60;99.90;;;;;;5033941;28;20033;-70
2022/07/31 06:39:26;;;;;;;12.13;5.90;;;18.80;99.90;;;;;;5035985;28;20075;-69
2022/07/31 06:41:52;;;;;;;8.82;5.60;;;19.00;99.90;;;;;;5040171;28;20070;-69
2022/07/31 06:44:18;;;;;;;10.13;4.93;;;19.00;99.90;;;;;;5041976;28;20076;-69
2022/07/31 06:46:48;;;;;;;4.90;3.42;;;19.10;99.90;;;;;;5034779;28;20477;-69
2022/07/31 06:49:14;;;;;;;7.20;2.75;;;19.20;99.90;;;;;;5034858;28;20123;-69
2022/07/31 06:51:40;;;;;;;5.80;2.38;;;19.60;99.90;;;;;;5034701;28;20025;-69
2022/07/31 06:54:07;;;;;;;8.00;3.35;;;20.00;99.90;;;;;;5034760;28;20056;-69
2022/07/31 06:56:34;;;;;;;6.25;2.53;;;20.10;99.90;;;;;;5034688;28;20091;-69
2022/07/31 06:59:00;;;;;;;7.47;2.53;;;20.30;99.90;;;;;;5035167;28;20018;-69
2022/07/31 07:01:26;;;;;;;7.82;2.60;;;20.40;99.90;;;;;;5034620;28;20041;-69
2022/07/31 07:03:53;;;;;;;3.38;2.55;;;20.60;99.90;;;;;;5034964;28;20026;-69
2022/07/31 07:06:19;;;;;;;7.55;3.38;;;20.50;99.90;;;;;;5034546;28;20036;-69
2022/07/31 07:08:44;;;;;;;5.38;2.45;;;20.30;99.90;;;;;;5035059;28;20025;-69
2022/07/31 07:11:10;;;;;;;9.20;3.05;;;20.30;99.90;;;;;;5034543;28;20040;-69
2022/07/31 07:13:36;;;;;;;7.20;3.00;;;20.30;99.90;;;;;;5033502;28;20028;-69
2022/07/31 07:16:02;;;;;;;6.60;2.90;;;20.20;99.90;;;;;;5034478;28;20051;-69
2022/07/31 07:18:27;;;;;;;4.30;2.00;;;20.30;99.90;;;;;;5034771;28;20022;-69
2022/07/31 07:20:53;;;;;;;5.85;3.10;;;20.40;99.90;;;;;;5001683;22;1467394;-68
2022/07/31 07:23:20;;;;;;;10.70;3.40;;;20.40;99.90;;;;;;5015363;28;20466;-68
2022/07/31 07:25:45;;;;;;;3.97;2.97;;;20.50;99.90;;;;;;5015872;28;20450;-67
2022/07/31 07:28:12;;;;;;;9.50;2.85;;;20.60;99.90;;;;;;5015353;28;20036;-69
2022/07/31 07:30:38;;;;;;;10.02;3.05;;;20.70;99.90;;;;;;5015161;28;20021;-69
2022/07/31 07:33:04;;;;;;;14.20;3.10;;;20.70;99.90;;;;;;5015185;28;20026;-69
2022/07/31 07:35:31;;;;;;;3.63;2.33;;;20.70;99.90;;;;;;5015096;28;20025;-68
2022/07/31 07:37:57;;;;;;;14.15;2.95;;;20.80;99.90;;;;;;5015110;28;20105;-68
2022/07/31 07:40:24;;;;;;;6.97;2.67;;;21.00;99.90;;;;;;5012498;28;20061;-67
2022/07/31 07:42:49;;;;;;;4.20;1.80;;;21.40;99.90;;;;;;5009199;28;20446;-68
2022/07/31 07:45:15;;;;;;;6.90;2.25;;;21.50;99.90;;;;;;4995518;28;20057;-67
2022/07/31 07:47:41;;;;;;;11.50;2.42;;;21.70;99.90;;;;;;4995641;28;20406;-67
2022/07/31 07:50:07;;;;;;;9.20;1.80;;;21.80;99.90;;;;;;4995344;28;20030;-68
2022/07/31 07:52:37;;;;;;;6.60;2.00;;;22.00;99.90;;;;;;4995562;28;20041;-67
2022/07/31 07:55:04;;;;;;;13.23;1.90;;;22.30;99.90;;;;;;4995367;28;20026;-67
2022/07/31 07:57:30;;;;;;;8.43;1.60;;;22.70;99.90;;;;;;4995070;28;20030;-69
2022/07/31 07:59:59;;;;;;;3.38;1.60;;;22.80;99.90;;;;;;4995193;28;20030;-69
2022/07/31 08:02:25;;;;;;;4.97;1.83;;;23.20;99.90;;;;;;5008224;28;20014;-67
2022/07/31 08:04:50;;;;;;;6.20;1.98;;;23.30;99.90;;;;;;5014831;28;20080;-68
2022/07/31 08:07:16;;;;;;;5.70;1.63;;;23.00;99.90;;;;;;5014594;28;20084;-67
2022/07/31 08:09:42;;;;;;;5.32;1.98;;;22.90;99.90;;;;;;5014539;28;20049;-67
2022/07/31 08:12:08;;;;;;;7.47;1.95;;;22.50;99.90;;;;;;5014406;28;20505;-68
2022/07/31 08:14:34;;;;;;;6.15;1.40;;;22.50;99.90;;;;;;5014314;28;20036;-67
2022/07/31 08:16:59;;;;;;;2.63;1.92;;;22.60;99.90;;;;;;5014654;28;20466;-67
2022/07/31 08:19:25;;;;;;;7.00;1.48;;;22.90;99.90;;;;;;5014586;28;20029;-68
2022/07/31 08:21:50;;;;;;;6.75;1.98;;;23.10;99.90;;;;;;5014200;28;20029;-68
2022/07/31 08:24:16;;;;;;;5.05;1.75;;;23.20;99.90;;;;;;5013984;28;20036;-68
2022/07/31 08:29:27;;;;;;;5.60;2.03;;;23.00;99.90;;;;;;5014479;28;20401;-67
2022/07/31 08:31:52;;;;;;;7.03;2.00;;;22.70;99.90;;;;;;5014086;28;20022;-67
2022/07/31 08:34:18;;;;;;;7.20;1.83;;;22.70;99.90;;;;;;5014285;28;20424;-67
2022/07/31 08:36:43;;;;;;;14.10;2.78;;;22.90;99.90;;;;;;5014113;28;20037;-66
2022/07/31 08:39:09;;;;;;;12.27;1.88;;;22.70;99.90;;;;;;5013986;28;20026;-66
2022/07/31 08:41:39;;;;;;;8.35;2.40;;;22.80;99.90;;;;;;5014079;28;20478;-66
2022/07/31 08:44:05;;;;;;;8.25;3.05;;;22.80;99.90;;;;;;5014240;28;20029;-66
2022/07/31 08:46:38;;;;;;;8.70;2.20;;;22.50;99.90;;;;;;5013868;28;20026;-67
2022/07/31 08:49:05;;;;;;;9.70;2.38;;;22.70;99.90;;;;;;5014177;28;20462;-67
2022/07/31 08:51:37;;;;;;;4.85;2.30;;;22.60;99.90;;;;;;5013925;28;20425;-67
2022/07/31 08:54:09;;;;;;;13.35;2.17;;;22.60;99.90;;;;;;5013762;28;20112;-67
2022/07/31 08:56:39;;;;;;;11.10;2.67;;;22.80;99.90;;;;;;5013754;28;20029;-67
2022/07/31 08:59:05;;;;;;;10.23;1.88;;;23.00;99.90;;;;;;5014026;28;20106;-67
2022/07/31 09:01:35;;;;;;;5.82;2.15;;;23.40;99.90;;;;;;4992809;28;20023;-67
2022/07/31 09:04:02;;;;;;;15.63;3.05;;;23.70;99.90;;;;;;4994353;28;20050;-67
2022/07/31 09:06:27;;;;;;;5.13;2.28;;;23.70;99.90;;;;;;4994751;28;20072;-67
2022/07/31 09:08:55;;;;;;;8.68;2.33;;;24.00;99.90;;;;;;4993695;28;20058;-68
2022/07/31 09:11:21;;;;;;;10.35;2.20;;;24.20;99.90;;;;;;5001419;28;20030;-67
2022/07/31 09:14:01;;;;;;;7.82;1.73;;;24.20;99.90;;;;;;5013502;28;20113;-67
2022/07/31 09:16:27;;;;;;;7.35;2.47;;;24.00;99.90;;;;;;5013486;28;20485;-68
2022/07/31 09:18:56;;;;;;;7.78;2.15;;;23.90;99.90;;;;;;5013562;28;20037;-68
2022/07/31 09:21:22;;;;;;;5.20;1.92;;;23.80;99.90;;;;;;5013446;28;20040;-67
2022/07/31 09:23:47;;;;;;;4.43;1.92;;;23.70;99.90;;;;;;5013628;28;20069;-67
2022/07/31 09:26:14;;;;;;;8.18;1.60;;;23.50;99.90;;;;;;5013496;28;20057;-67
2022/07/31 09:28:45;;;;;;;5.20;2.03;;;23.80;99.90;;;;;;5013703;28;20022;-67
2022/07/31 09:31:12;;;;;;;10.30;2.55;;;24.20;99.90;;;;;;5013725;28;20026;-68
2022/07/31 09:33:41;;;;;;;9.88;2.33;;;24.10;99.90;;;;;;5016666;28;20017;-69
2022/07/31 09:36:06;;;;;;;6.15;2.00;;;23.70;99.90;;;;;;5021695;28;20060;-68
2022/07/31 09:38:40;;;;;;;4.20;1.83;;;23.70;99.90;;;;;;5020269;28;20485;-68
2022/07/31 09:41:17;;;;;;;6.13;2.20;;;24.10;99.90;;;;;;5030516;28;20030;-68
2022/07/31 09:43:53;;;;;;;6.72;2.08;;;24.70;99.90;;;;;;5037198;28;20025;-68
2022/07/31 09:46:19;;;;;;;7.72;2.00;;;25.20;99.90;;;;;;4997631;28;20037;-69
2022/07/31 09:48:52;;;;;;;5.20;1.92;;;25.80;99.90;;;;;;4997547;28;20390;-69
2022/07/31 09:51:17;;;;;;;3.72;2.00;;;26.30;99.90;;;;;;5013194;28;20026;-68
2022/07/31 09:53:51;;;;;;;9.43;1.90;;;26.40;99.90;;;;;;5026562;28;20384;-68
2022/07/31 09:56:28;;;;;;;5.40;1.67;;;26.10;99.90;;;;;;5027754;28;20098;-68
2022/07/31 09:58:54;;;;;;;8.02;2.05;;;26.10;99.90;;;;;;5016874;28;20025;-68
2022/07/31 10:01:20;;;;;;;4.63;1.58;;;26.10;99.90;;;;;;5016524;28;20094;-68
2022/07/31 10:03:49;;;;;;;13.70;2.00;;;25.70;99.90;;;;;;5016874;28;20024;-68
2022/07/31 10:06:15;;;;;;;10.77;2.45;;;25.50;99.90;;;;;;5016826;28;20030;-68
2022/07/31 10:08:43;;;;;;;10.07;2.50;;;25.00;99.90;;;;;;5016699;28;20056;-69
2022/07/31 10:11:09;;;;;;;9.48;2.35;;;24.80;99.90;;;;;;5014608;28;20037;-68
2022/07/31 10:13:38;;;;;;;6.47;2.22;;;24.90;99.90;;;;;;5016698;28;20494;-69
2022/07/31 10:16:05;;;;;;;6.07;2.00;;;24.80;99.90;;;;;;5016505;28;20030;-68
2022/07/31 10:18:36;;;;;;;8.68;1.90;;;24.60;99.90;;;;;;4999828;28;20492;-68
2022/07/31 10:21:04;;;;;;;10.75;2.33;;;24.60;99.90;;;;;;4996880;28;20034;-68
2022/07/31 10:23:33;;;;;;;12.25;2.65;;;24.40;99.90;;;;;;4996840;28;20526;-68
2022/07/31 10:26:00;;;;;;;9.80;2.35;;;24.30;99.90;;;;;;4997100;28;20026;-68
2022/07/31 10:28:30;;;;;;;12.60;2.67;;;24.30;99.90;;;;;;5006122;28;20099;-68
2022/07/31 10:30:57;;;;;;;6.95;2.00;;;24.30;99.90;;;;;;5016252;28;20026;-68
2022/07/31 10:33:23;;;;;;;9.82;2.28;;;24.60;99.90;;;;;;5016742;28;20018;-68
2022/07/31 10:36:09;;;;;;;4.90;1.73;;;24.90;99.90;;;;;;5016511;28;20026;-67
2022/07/31 10:38:39;;;;;;;11.10;1.95;;;25.40;99.90;;;;;;5016191;28;20497;-66
2022/07/31 10:41:08;;;;;;;9.68;2.58;;;25.30;99.90;;;;;;5016215;28;20018;-66
2022/07/31 10:43:55;;;;;;;10.90;2.35;;;25.30;99.90;;;;;;5016066;28;20022;-66
2022/07/31 10:46:28;;;;;;;11.85;2.05;;;25.40;99.90;;;;;;5016336;28;20103;-67
2022/07/31 10:48:55;;;;;;;10.63;2.00;;;25.70;99.90;;;;;;5015824;28;20100;-67
2022/07/31 10:51:21;;;;;;;13.60;2.00;;;26.20;99.90;;;;;;5016012;28;20030;-67
2022/07/31 10:53:57;;;;;;;13.88;2.65;;;26.50;99.90;;;;;;5016040;28;20037;-68
2022/07/31 10:56:23;;;;;;;9.13;2.13;;;26.10;99.90;;;;;;5015791;28;20022;-68
2022/07/31 10:58:50;;;;;;;11.32;2.45;;;25.80;99.90;;;;;;5015497;28;20546;-68
2022/07/31 11:01:17;;;;;;;4.13;2.05;;;25.50;99.90;;;;;;5015946;28;20026;-67
2022/07/31 11:03:45;;;;;;;4.47;1.85;;;25.20;99.90;;;;;;5016016;28;20038;-67
2022/07/31 11:06:12;;;;;;;8.55;2.20;;;25.60;99.90;;;;;;5015689;28;20490;-68
2022/07/31 11:08:42;;;;;;;4.53;2.13;;;25.80;99.90;;;;;;5015856;28;20034;-67
2022/07/31 11:11:08;;;;;;;19.38;2.13;;;25.80;99.90;;;;;;5015484;28;20033;-68
2022/07/31 11:13:50;;;;;;;4.75;1.83;;;25.60;99.90;;;;;;5015469;28;20029;-68
2022/07/31 11:16:16;;;;;;;6.50;2.20;;;25.70;99.90;;;;;;5016074;28;20489;-68
2022/07/31 11:18:44;;;;;;;6.22;2.47;;;25.40;99.90;;;;;;5015743;28;20080;-68
2022/07/31 11:21:10;;;;;;;6.78;1.83;;;25.30;99.90;;;;;;5015322;28;20030;-67
2022/07/31 11:23:36;;;;;;;8.45;2.20;;;25.20;99.90;;;;;;4995784;28;20026;-67
2022/07/31 11:26:05;;;;;;;2.55;1.45;;;25.10;99.90;;;;;;4995727;28;20426;-67
2022/07/31 11:28:32;;;;;;;4.45;1.75;;;25.10;99.90;;;;;;5003193;28;20025;-68
2022/07/31 11:31:00;;;;;;;7.88;2.30;;;25.00;99.90;;;;;;5015103;28;20524;-67
2022/07/31 11:33:32;;;;;;;3.40;1.90;;;24.90;99.90;;;;;;5015125;28;20072;-67
2022/07/31 11:36:10;;;;;;;11.30;2.28;;;24.60;99.90;;;;;;5015109;28;20024;-67
2022/07/31 11:38:37;;;;;;;6.57;2.05;;;24.50;99.90;;;;;;5015354;28;20082;-67
2022/07/31 11:41:04;;;;;;;8.00;2.25;;;24.50;99.90;;;;;;5014732;28;20462;-67
2022/07/31 11:43:30;;;;;;;8.07;1.92;;;24.00;99.90;;;;;;5014911;28;20026;-67
2022/07/31 11:45:56;;;;;;;6.78;2.05;;;23.90;99.90;;;;;;5015228;28;20022;-66
2022/07/31 11:48:22;;;;;;;9.70;2.53;;;23.80;99.90;;;;;;5014860;28;20026;-67
2022/07/31 11:50:49;;;;;;;7.18;2.33;;;23.60;99.90;;;;;;5014771;28;20033;-68
2022/07/31 11:53:16;;;;;;;6.07;2.42;;;23.40;99.90;;;;;;5014998;28;20382;-68
2022/07/31 11:55:58;;;;;;;5.03;2.38;;;23.20;99.90;;;;;;5014704;28;20026;-68
2022/07/31 11:58:25;;;;;;;6.78;2.33;;;23.20;99.90;;;;;;5014583;28;20022;-68
2022/07/31 12:00:53;;;;;;;3.88;2.03;;;23.10;99.90;;;;;;5014615;28;20378;-68
2022/07/31 12:03:27;;;;;;;6.38;2.30;;;23.10;99.90;;;;;;5014582;28;20025;-68
2022/07/31 12:05:52;;;;;;;6.57;2.22;;;23.00;99.90;;;;;;5014786;28;20022;-68
2022/07/31 12:08:19;;;;;;;5.82;1.98;;;22.90;99.90;;;;;;5014633;28;20022;-68
2022/07/31 12:10:45;;;;;;;6.22;2.35;;;22.90;99.90;;;;;;5014429;28;20044;-68
2022/07/31 12:13:13;;;;;;;5.20;1.73;;;23.00;99.90;;;;;;5014623;28;20030;-68
2022/07/31 12:15:39;;;;;;;12.18;2.50;;;22.90;99.90;;;;;;5014862;28;20057;-68
2022/07/31 12:18:05;;;;;;;9.20;2.15;;;23.00;99.90;;;;;;5014332;28;20100;-68
2022/07/31 12:20:32;;;;;;;4.50;2.42;;;23.10;99.90;;;;;;5014077;28;20033;-68
2022/07/31 12:22:58;;;;;;;7.10;1.98;;;23.20;99.90;;;;;;5014610;28;20026;-68
2022/07/31 12:25:25;;;;;;;5.93;2.17;;;23.40;99.90;;;;;;5014161;28;20022;-68
2022/07/31 12:27:54;;;;;;;9.45;2.38;;;23.70;99.90;;;;;;5014416;28;20425;-68
2022/07/31 12:30:24;;;;;;;6.53;1.60;;;23.90;99.90;;;;;;5013960;28;20482;-68
2022/07/31 12:32:50;;;;;;;5.80;1.58;;;24.30;99.90;;;;;;5014075;28;20121;-68
2022/07/31 12:35:16;;;;;;;7.72;1.63;;;24.60;99.90;;;;;;5013940;28;20096;-67
2022/07/31 12:37:47;;;;;;;5.18;1.65;;;25.20;99.90;;;;;;5014082;28;20026;-67
2022/07/31 12:40:26;;;;;;;6.00;2.00;;;25.80;99.90;;;;;;5013839;28;20080;-67